sensor_id;sensor_type;location;lat;lon;timestamp;pressure;altitude;pressure_sealevel;temperature;humidity
10135;BME280;5107;48.850;8.924;2023-04-07T00:00:53;96805.75;;;20.26;50.30
10135;BME280;5107;48.850;8.924;2023-04-07T00:03:19;96810.06;;;20.27;50.29
10135;BME280;5107;48.850;8.924;2023-04-07T00:05:46;96801.22;;;20.26;50.47
10135;BME280;5107;48.850;8.924;2023-04-07T00:08:12;96796.13;;;20.25;50.22
10135;BME280;5107;48.850;8.924;2023-04-07T00:10:38;96795.31;;;20.24;50.58
10135;BME280;5107;48.850;8.924;2023-04-07T00:13:04;96790.78;;;20.25;50.31
10135;BME280;5107;48.850;8.924;2023-04-07T00:15:29;96791.84;;;20.24;50.21
10135;BME280;5107;48.850;8.924;2023-04-07T00:17:55;96787.53;;;20.23;50.41
10135;BME280;5107;48.850;8.924;2023-04-07T00:20:21;96785.44;;;20.25;50.63
10135;BME280;5107;48.850;8.924;2023-04-07T00:22:48;96786.50;;;20.24;50.52
10135;BME280;5107;48.850;8.924;2023-04-07T00:25:14;96785.91;;;20.22;50.55
10135;BME280;5107;48.850;8.924;2023-04-07T00:27:40;96781.13;;;20.24;50.42
10135;BME280;5107;48.850;8.924;2023-04-07T00:30:07;96784.03;;;20.22;50.34
10135;BME280;5107;48.850;8.924;2023-04-07T00:32:32;96775.44;;;20.20;50.53
10135;BME280;5107;48.850;8.924;2023-04-07T00:34:58;96777.88;;;20.22;50.33
10135;BME280;5107;48.850;8.924;2023-04-07T00:37:24;96770.69;;;20.22;50.44
10135;BME280;5107;48.850;8.924;2023-04-07T00:39:50;96765.56;;;20.21;50.50
10135;BME280;5107;48.850;8.924;2023-04-07T00:42:17;96768.81;;;20.23;50.65
10135;BME280;5107;48.850;8.924;2023-04-07T00:44:46;96765.56;;;20.21;50.56
10135;BME280;5107;48.850;8.924;2023-04-07T00:47:12;96760.78;;;20.23;50.70
10135;BME280;5107;48.850;8.924;2023-04-07T00:49:38;96762.44;;;20.24;50.57
10135;BME280;5107;48.850;8.924;2023-04-07T00:52:05;96759.16;;;20.22;50.53
10135;BME280;5107;48.850;8.924;2023-04-07T00:54:32;96759.16;;;20.22;50.65
10135;BME280;5107;48.850;8.924;2023-04-07T00:56:58;96738.00;;;20.20;50.34
10135;BME280;5107;48.850;8.924;2023-04-07T00:59:24;96742.53;;;20.20;50.74
10135;BME280;5107;48.850;8.924;2023-04-07T01:02:17;96736.75;;;20.23;50.83
10135;BME280;5107;48.850;8.924;2023-04-07T01:07:57;96735.13;;;20.22;50.61
10135;BME280;5107;48.850;8.924;2023-04-07T01:11:02;96726.50;;;20.20;50.87
10135;BME280;5107;48.850;8.924;2023-04-07T01:16:06;96730.00;;;20.20;50.78
10135;BME280;5107;48.850;8.924;2023-04-07T01:18:36;96714.78;;;20.21;50.90
10135;BME280;5107;48.850;8.924;2023-04-07T01:21:08;96716.41;;;20.22;50.55
10135;BME280;5107;48.850;8.924;2023-04-07T01:26:30;96708.59;;;20.20;50.33
10135;BME280;5107;48.850;8.924;2023-04-07T01:31:58;96701.41;;;20.21;50.74
10135;BME280;5107;48.850;8.924;2023-04-07T01:34:26;96705.13;;;20.20;50.68
10135;BME280;5107;48.850;8.924;2023-04-07T01:36:54;96706.16;;;20.19;50.62
10135;BME280;5107;48.850;8.924;2023-04-07T01:39:21;96693.63;;;20.19;50.45
10135;BME280;5107;48.850;8.924;2023-04-07T01:41:49;96690.94;;;20.19;50.51
10135;BME280;5107;48.850;8.924;2023-04-07T01:44:18;96692.81;;;20.19;50.59
10135;BME280;5107;48.850;8.924;2023-04-07T01:46:44;96695.84;;;20.22;50.66
10135;BME280;5107;48.850;8.924;2023-04-07T01:49:12;96685.59;;;20.19;50.42
10135;BME280;5107;48.850;8.924;2023-04-07T01:51:39;96688.03;;;20.21;50.27
10135;BME280;5107;48.850;8.924;2023-04-07T01:54:05;96686.63;;;20.18;50.67
10135;BME280;5107;48.850;8.924;2023-04-07T01:56:32;96683.16;;;20.18;50.54
10135;BME280;5107;48.850;8.924;2023-04-07T01:58:58;96686.06;;;20.16;50.53
10135;BME280;5107;48.850;8.924;2023-04-07T02:01:24;96682.09;;;20.19;50.47
10135;BME280;5107;48.850;8.924;2023-04-07T02:04:11;96680.47;;;20.18;50.57
10135;BME280;5107;48.850;8.924;2023-04-07T02:06:52;96678.06;;;20.16;50.47
10135;BME280;5107;48.850;8.924;2023-04-07T02:09:21;96679.91;;;20.16;50.58
10135;BME280;5107;48.850;8.924;2023-04-07T02:11:49;96681.28;;;20.18;50.61
10135;BME280;5107;48.850;8.924;2023-04-07T02:14:17;96676.19;;;20.17;50.65
10135;BME280;5107;48.850;8.924;2023-04-07T02:16:46;96673.28;;;20.18;50.67
10135;BME280;5107;48.850;8.924;2023-04-07T02:19:12;96672.72;;;20.16;50.48
10135;BME280;5107;48.850;8.924;2023-04-07T02:21:39;96667.94;;;20.18;50.52
10135;BME280;5107;48.850;8.924;2023-04-07T02:24:06;96665.50;;;20.17;50.38
10135;BME280;5107;48.850;8.924;2023-04-07T02:26:36;96666.31;;;20.17;50.67
10135;BME280;5107;48.850;8.924;2023-04-07T02:29:03;96667.13;;;20.18;50.70
10135;BME280;5107;48.850;8.924;2023-04-07T02:31:29;96660.50;;;20.20;50.37
10135;BME280;5107;48.850;8.924;2023-04-07T02:33:55;96659.69;;;20.20;50.45
10135;BME280;5107;48.850;8.924;2023-04-07T02:36:21;96658.06;;;20.19;50.49
10135;BME280;5107;48.850;8.924;2023-04-07T02:38:46;96654.00;;;20.16;50.46
10135;BME280;5107;48.850;8.924;2023-04-07T02:41:12;96659.09;;;20.18;50.33
10135;BME280;5107;48.850;8.924;2023-04-07T02:43:38;96646.22;;;20.15;50.12
10135;BME280;5107;48.850;8.924;2023-04-07T02:46:04;96653.66;;;20.13;50.53
10135;BME280;5107;48.850;8.924;2023-04-07T02:48:29;96646.44;;;20.13;50.55
10135;BME280;5107;48.850;8.924;2023-04-07T02:50:55;96641.91;;;20.14;50.83
10135;BME280;5107;48.850;8.924;2023-04-07T02:53:21;96644.59;;;20.14;50.43
10135;BME280;5107;48.850;8.924;2023-04-07T02:55:47;96649.13;;;20.13;50.54
10135;BME280;5107;48.850;8.924;2023-04-07T02:58:13;96649.13;;;20.13;50.64
10135;BME280;5107;48.850;8.924;2023-04-07T03:00:38;96645.41;;;20.14;50.74
10135;BME280;5107;48.850;8.924;2023-04-07T03:03:04;96643.53;;;20.15;50.60
10135;BME280;5107;48.850;8.924;2023-04-07T03:05:30;96644.59;;;20.14;50.72
10135;BME280;5107;48.850;8.924;2023-04-07T03:07:56;96643.53;;;20.15;50.33
10135;BME280;5107;48.850;8.924;2023-04-07T03:10:22;96645.63;;;20.13;50.40
10135;BME280;5107;48.850;8.924;2023-04-07T03:12:48;96643.53;;;20.15;50.40
10135;BME280;5107;48.850;8.924;2023-04-07T03:15:14;96641.91;;;20.14;50.46
10135;BME280;5107;48.850;8.924;2023-04-07T03:17:40;96635.97;;;20.12;50.65
10135;BME280;5107;48.850;8.924;2023-04-07T03:20:06;96634.94;;;20.13;50.71
10135;BME280;5107;48.850;8.924;2023-04-07T03:22:32;96626.91;;;20.13;50.46
10135;BME280;5107;48.850;8.924;2023-04-07T03:24:58;96626.09;;;20.12;50.77
10135;BME280;5107;48.850;8.924;2023-04-07T03:27:24;96625.28;;;20.12;50.90
10135;BME280;5107;48.850;8.924;2023-04-07T03:29:52;96624.25;;;20.13;50.40
10135;BME280;5107;48.850;8.924;2023-04-07T03:32:18;96622.38;;;20.13;50.68
10135;BME280;5107;48.850;8.924;2023-04-07T03:34:43;96620.53;;;20.14;50.47
10135;BME280;5107;48.850;8.924;2023-04-07T03:37:09;96624.25;;;20.13;50.43
10135;BME280;5107;48.850;8.924;2023-04-07T03:39:35;96623.22;;;20.14;50.72
10135;BME280;5107;48.850;8.924;2023-04-07T03:42:02;96619.72;;;20.13;50.93
10135;BME280;5107;48.850;8.924;2023-04-07T03:44:28;96618.69;;;20.14;50.62
10135;BME280;5107;48.850;8.924;2023-04-07T03:46:54;96613.34;;;20.14;50.65
10135;BME280;5107;48.850;8.924;2023-04-07T03:49:19;96616.81;;;20.15;50.58
10135;BME280;5107;48.850;8.924;2023-04-07T03:51:45;96615.78;;;20.16;50.54
10135;BME280;5107;48.850;8.924;2023-04-07T03:54:11;96616.81;;;20.15;50.98
10135;BME280;5107;48.850;8.924;2023-04-07T03:56:37;96617.63;;;20.15;50.85
10135;BME280;5107;48.850;8.924;2023-04-07T03:59:03;96611.47;;;20.15;50.70
10135;BME280;5107;48.850;8.924;2023-04-07T04:01:29;96618.44;;;20.16;50.78
10135;BME280;5107;48.850;8.924;2023-04-07T04:03:55;96611.25;;;20.16;50.83
10135;BME280;5107;48.850;8.924;2023-04-07T04:06:20;96616.59;;;20.16;51.34
10135;BME280;5107;48.850;8.924;2023-04-07T04:08:46;96614.75;;;20.17;51.83
10135;BME280;5107;48.850;8.924;2023-04-07T04:11:12;96608.31;;;20.18;51.45
10135;BME280;5107;48.850;8.924;2023-04-07T04:13:38;96608.31;;;20.18;51.42
10135;BME280;5107;48.850;8.924;2023-04-07T04:16:04;96596.81;;;20.17;51.31
10135;BME280;5107;48.850;8.924;2023-04-07T04:18:30;96598.44;;;20.18;51.44
10135;BME280;5107;48.850;8.924;2023-04-07T04:20:55;96596.59;;;20.19;51.43
10135;BME280;5107;48.850;8.924;2023-04-07T04:23:21;96601.13;;;20.18;51.27
10135;BME280;5107;48.850;8.924;2023-04-07T04:25:47;96610.19;;;20.17;51.43
10135;BME280;5107;48.850;8.924;2023-04-07T04:28:13;96607.28;;;20.19;51.32
10135;BME280;5107;48.850;8.924;2023-04-07T04:30:39;96601.94;;;20.19;51.59
10135;BME280;5107;48.850;8.924;2023-04-07T04:33:05;96594.97;;;20.18;51.54
10135;BME280;5107;48.850;8.924;2023-04-07T04:35:31;96601.94;;;20.19;51.64
10135;BME280;5107;48.850;8.924;2023-04-07T04:37:57;96599.25;;;20.19;51.83
10135;BME280;5107;48.850;8.924;2023-04-07T04:40:23;96595.78;;;20.18;51.68
10135;BME280;5107;48.850;8.924;2023-04-07T04:42:49;96606.47;;;20.18;51.71
10135;BME280;5107;48.850;8.924;2023-04-07T04:45:15;96604.59;;;20.19;51.66
10135;BME280;5107;48.850;8.924;2023-04-07T04:47:41;96609.94;;;20.19;51.69
10135;BME280;5107;48.850;8.924;2023-04-07T04:50:09;96607.06;;;20.20;51.98
10135;BME280;5107;48.850;8.924;2023-04-07T04:52:35;96612.41;;;20.20;52.29
10135;BME280;5107;48.850;8.924;2023-04-07T04:55:02;96607.06;;;20.20;51.82
10135;BME280;5107;48.850;8.924;2023-04-07T04:57:28;96620.41;;;20.20;52.19
10135;BME280;5107;48.850;8.924;2023-04-07T04:59:54;96616.47;;;20.23;51.94
10135;BME280;5107;48.850;8.924;2023-04-07T05:02:20;96614.94;;;20.27;52.04
10135;BME280;5107;48.850;8.924;2023-04-07T05:04:46;96616.56;;;20.28;51.91
10135;BME280;5107;48.850;8.924;2023-04-07T05:07:12;96615.66;;;20.34;51.80
10135;BME280;5107;48.850;8.924;2023-04-07T05:09:37;96610.09;;;20.35;51.50
10135;BME280;5107;48.850;8.924;2023-04-07T05:12:03;96613.94;;;20.39;51.75
10135;BME280;5107;48.850;8.924;2023-04-07T05:14:29;96617.75;;;20.43;51.64
10135;BME280;5107;48.850;8.924;2023-04-07T05:16:55;96615.66;;;20.45;51.50
10135;BME280;5107;48.850;8.924;2023-04-07T05:19:21;96621.38;;;20.49;51.41
10135;BME280;5107;48.850;8.924;2023-04-07T05:21:47;96612.31;;;20.50;51.60
10135;BME280;5107;48.850;8.924;2023-04-07T05:24:13;96617.28;;;20.47;51.22
10135;BME280;5107;48.850;8.924;2023-04-07T05:26:38;96615.91;;;20.44;51.52
10135;BME280;5107;48.850;8.924;2023-04-07T05:29:04;96613.00;;;20.45;51.42
10135;BME280;5107;48.850;8.924;2023-04-07T05:31:31;96609.50;;;20.45;51.51
10135;BME280;5107;48.850;8.924;2023-04-07T05:33:58;96613.22;;;20.44;51.13
10135;BME280;5107;48.850;8.924;2023-04-07T05:36:24;96611.59;;;20.43;51.56
10135;BME280;5107;48.850;8.924;2023-04-07T05:38:50;96610.53;;;20.44;51.16
10135;BME280;5107;48.850;8.924;2023-04-07T05:41:16;96614.84;;;20.45;51.13
10135;BME280;5107;48.850;8.924;2023-04-07T05:43:41;96619.63;;;20.43;51.35
10135;BME280;5107;48.850;8.924;2023-04-07T05:46:07;96615.31;;;20.42;51.45
10135;BME280;5107;48.850;8.924;2023-04-07T05:48:33;96618.25;;;20.40;51.15
10135;BME280;5107;48.850;8.924;2023-04-07T05:50:59;96618.78;;;20.42;51.15
10135;BME280;5107;48.850;8.924;2023-04-07T05:53:24;96613.44;;;20.42;51.14
10135;BME280;5107;48.850;8.924;2023-04-07T05:55:50;96615.31;;;20.42;51.24
10135;BME280;5107;48.850;8.924;2023-04-07T05:58:16;96616.13;;;20.42;51.27
10135;BME280;5107;48.850;8.924;2023-04-07T06:00:42;96618.78;;;20.42;51.25
10135;BME280;5107;48.850;8.924;2023-04-07T06:03:08;96617.75;;;20.43;51.24
10135;BME280;5107;48.850;8.924;2023-04-07T06:05:33;96613.22;;;20.44;51.16
10135;BME280;5107;48.850;8.924;2023-04-07T06:07:59;96617.53;;;20.45;51.49
10135;BME280;5107;48.850;8.924;2023-04-07T06:10:25;96613.22;;;20.44;51.53
10135;BME280;5107;48.850;8.924;2023-04-07T06:12:51;96618.56;;;20.44;51.38
10135;BME280;5107;48.850;8.924;2023-04-07T06:15:17;96616.94;;;20.43;51.78
10135;BME280;5107;48.850;8.924;2023-04-07T06:17:43;96610.53;;;20.44;51.63
10135;BME280;5107;48.850;8.924;2023-04-07T06:20:10;96613.22;;;20.44;51.84
10135;BME280;5107;48.850;8.924;2023-04-07T06:22:36;96615.09;;;20.43;51.83
10135;BME280;5107;48.850;8.924;2023-04-07T06:25:02;96616.94;;;20.43;51.76
10135;BME280;5107;48.850;8.924;2023-04-07T06:27:28;96614.25;;;20.43;51.88
10135;BME280;5107;48.850;8.924;2023-04-07T06:29:55;96620.44;;;20.43;51.94
10135;BME280;5107;48.850;8.924;2023-04-07T06:32:21;96620.19;;;20.45;52.12
10135;BME280;5107;48.850;8.924;2023-04-07T06:34:47;96625.53;;;20.45;52.13
10135;BME280;5107;48.850;8.924;2023-04-07T06:37:12;96618.13;;;20.47;52.46
10135;BME280;5107;48.850;8.924;2023-04-07T06:39:38;96619.97;;;20.47;52.41
10135;BME280;5107;48.850;8.924;2023-04-07T06:42:04;96622.06;;;20.44;52.15
10135;BME280;5107;48.850;8.924;2023-04-07T06:44:30;96624.28;;;20.48;52.14
10135;BME280;5107;48.850;8.924;2023-04-07T06:46:56;96616.47;;;20.46;52.00
10135;BME280;5107;48.850;8.924;2023-04-07T06:49:22;96617.53;;;20.45;52.47
10135;BME280;5107;48.850;8.924;2023-04-07T06:51:48;96619.38;;;20.44;52.57
10135;BME280;5107;48.850;8.924;2023-04-07T06:54:13;96614.84;;;20.45;52.43
10135;BME280;5107;48.850;8.924;2023-04-07T06:56:41;96614.84;;;20.45;52.60
10135;BME280;5107;48.850;8.924;2023-04-07T06:59:07;96616.72;;;20.44;52.30
10135;BME280;5107;48.850;8.924;2023-04-07T07:01:33;96618.56;;;20.44;52.40
10135;BME280;5107;48.850;8.924;2023-04-07T07:03:59;96620.78;;;20.47;52.62
10135;BME280;5107;48.850;8.924;2023-04-07T07:06:26;96616.47;;;20.46;52.65
10135;BME280;5107;48.850;8.924;2023-04-07T07:08:52;96617.53;;;20.45;52.28
10135;BME280;5107;48.850;8.924;2023-04-07T07:11:18;96611.13;;;20.46;52.54
10135;BME280;5107;48.850;8.924;2023-04-07T07:13:44;96623.47;;;20.47;52.70
10135;BME280;5107;48.850;8.924;2023-04-07T07:16:10;96624.28;;;20.48;52.43
10135;BME280;5107;48.850;8.924;2023-04-07T07:18:39;96620.88;;;20.52;52.42
10135;BME280;5107;48.850;8.924;2023-04-07T07:21:05;96624.16;;;20.54;52.54
10135;BME280;5107;48.850;8.924;2023-04-07T07:23:31;96625.06;;;20.60;52.27
10135;BME280;5107;48.850;8.924;2023-04-07T07:25:59;96629.50;;;20.66;51.93
10135;BME280;5107;48.850;8.924;2023-04-07T07:28:25;96621.78;;;20.69;52.34
10135;BME280;5107;48.850;8.924;2023-04-07T07:30:53;96616.78;;;20.73;52.09
10135;BME280;5107;48.850;8.924;2023-04-07T07:33:19;96617.38;;;20.75;51.66
10135;BME280;5107;48.850;8.924;2023-04-07T07:35:47;96624.44;;;20.81;51.69
10135;BME280;5107;48.850;8.924;2023-04-07T07:38:13;96624.22;;;20.82;51.73
10135;BME280;5107;48.850;8.924;2023-04-07T07:40:39;96621.28;;;20.84;51.85
10135;BME280;5107;48.850;8.924;2023-04-07T07:43:05;96621.06;;;20.86;51.60
10135;BME280;5107;48.850;8.924;2023-04-07T07:45:31;96618.38;;;20.86;51.73
10135;BME280;5107;48.850;8.924;2023-04-07T07:47:57;96616.75;;;20.84;51.77
10135;BME280;5107;48.850;8.924;2023-04-07T07:50:23;96613.84;;;20.86;51.51
10135;BME280;5107;48.850;8.924;2023-04-07T07:52:48;96618.38;;;20.86;51.87
10135;BME280;5107;48.850;8.924;2023-04-07T07:55:14;96622.69;;;20.87;51.88
10135;BME280;5107;48.850;8.924;2023-04-07T07:57:40;96627.22;;;20.86;51.58
10135;BME280;5107;48.850;8.924;2023-04-07T08:00:07;96621.06;;;20.86;51.75
10135;BME280;5107;48.850;8.924;2023-04-07T08:02:33;96618.59;;;20.84;52.07
10135;BME280;5107;48.850;8.924;2023-04-07T08:04:59;96624.78;;;20.84;51.81
10135;BME280;5107;48.850;8.924;2023-04-07T08:07:26;96622.69;;;20.87;51.88
10135;BME280;5107;48.850;8.924;2023-04-07T08:09:52;96621.06;;;20.86;51.65
10135;BME280;5107;48.850;8.924;2023-04-07T08:12:18;96610.34;;;20.86;51.81
10135;BME280;5107;48.850;8.924;2023-04-07T08:14:44;96616.28;;;20.88;52.00
10135;BME280;5107;48.850;8.924;2023-04-07T08:17:10;96626.75;;;20.89;51.83
10135;BME280;5107;48.850;8.924;2023-04-07T08:19:37;96624.53;;;20.86;52.18
10135;BME280;5107;48.850;8.924;2023-04-07T08:22:02;96628.03;;;20.87;51.89
10135;BME280;5107;48.850;8.924;2023-04-07T08:24:28;96623.19;;;20.83;52.29
10135;BME280;5107;48.850;8.924;2023-04-07T08:26:54;96623.72;;;20.86;52.06
10135;BME280;5107;48.850;8.924;2023-04-07T08:29:20;96634.66;;;20.84;52.27
10135;BME280;5107;48.850;8.924;2023-04-07T08:31:46;96627.72;;;20.83;52.44
10135;BME280;5107;48.850;8.924;2023-04-07T08:34:12;96634.09;;;20.82;52.45
10135;BME280;5107;48.850;8.924;2023-04-07T08:36:38;96629.81;;;20.81;52.62
10135;BME280;5107;48.850;8.924;2023-04-07T08:39:04;96633.28;;;20.81;52.51
10135;BME280;5107;48.850;8.924;2023-04-07T08:41:36;96633.28;;;20.81;52.56
10135;BME280;5107;48.850;8.924;2023-04-07T08:44:03;96638.88;;;20.80;52.81
10135;BME280;5107;48.850;8.924;2023-04-07T08:46:29;96636.44;;;20.78;52.71
10135;BME280;5107;48.850;8.924;2023-04-07T08:48:56;96640.16;;;20.77;52.82
10135;BME280;5107;48.850;8.924;2023-04-07T08:51:32;96645.50;;;20.77;52.81
10135;BME280;5107;48.850;8.924;2023-04-07T08:54:12;96638.06;;;20.79;52.78
10135;BME280;5107;48.850;8.924;2023-04-07T08:56:40;96634.78;;;20.77;52.89
10135;BME280;5107;48.850;8.924;2023-04-07T08:59:12;96641.78;;;20.78;52.82
10135;BME280;5107;48.850;8.924;2023-04-07T09:01:39;96639.09;;;20.78;52.63
10135;BME280;5107;48.850;8.924;2023-04-07T09:04:07;96640.97;;;20.78;52.72
10135;BME280;5107;48.850;8.924;2023-04-07T09:06:34;96632.72;;;20.79;52.88
10135;BME280;5107;48.850;8.924;2023-04-07T09:09:01;96633.88;;;20.83;52.28
10135;BME280;5107;48.850;8.924;2023-04-07T09:11:29;96644.22;;;20.80;52.47
10135;BME280;5107;48.850;8.924;2023-04-07T09:13:55;96637.81;;;20.81;52.41
10135;BME280;5107;48.850;8.924;2023-04-07T09:16:21;96649.34;;;20.81;52.60
10135;BME280;5107;48.850;8.924;2023-04-07T09:18:48;96647.25;;;20.83;52.42
10135;BME280;5107;48.850;8.924;2023-04-07T09:21:14;96633.06;;;20.83;52.42
10135;BME280;5107;48.850;8.924;2023-04-07T09:23:41;96638.41;;;20.83;51.88
10135;BME280;5107;48.850;8.924;2023-04-07T09:26:27;96648.31;;;20.82;51.92
10135;BME280;5107;48.850;8.924;2023-04-07T09:28:59;96652.03;;;20.81;51.67
10135;BME280;5107;48.850;8.924;2023-04-07T09:31:48;96645.63;;;20.82;51.70
10135;BME280;5107;48.850;8.924;2023-04-07T09:34:33;96648.31;;;20.82;51.54
10135;BME280;5107;48.850;8.924;2023-04-07T09:36:59;96644.56;;;20.83;51.45
10135;BME280;5107;48.850;8.924;2023-04-07T09:39:26;96651.66;;;20.90;51.20
10135;BME280;5107;48.850;8.924;2023-04-07T09:41:52;96650.13;;;20.94;51.19
10135;BME280;5107;48.850;8.924;2023-04-07T09:44:19;96652.25;;;20.92;51.33
10135;BME280;5107;48.850;8.924;2023-04-07T09:47:02;96652.25;;;20.92;51.63
10135;BME280;5107;48.850;8.924;2023-04-07T09:49:28;96650.59;;;20.91;51.68
10135;BME280;5107;48.850;8.924;2023-04-07T09:52:00;96643.63;;;20.90;51.54
10135;BME280;5107;48.850;8.924;2023-04-07T09:54:38;96646.31;;;20.90;51.92
10135;BME280;5107;48.850;8.924;2023-04-07T09:57:07;96648.97;;;20.90;51.66
10135;BME280;5107;48.850;8.924;2023-04-07T09:59:39;96652.47;;;20.90;51.83
10135;BME280;5107;48.850;8.924;2023-04-07T10:02:07;96653.28;;;20.91;52.03
10135;BME280;5107;48.850;8.924;2023-04-07T10:04:33;96650.59;;;20.91;52.10
10135;BME280;5107;48.850;8.924;2023-04-07T10:06:59;96649.78;;;20.90;52.13
10135;BME280;5107;48.850;8.924;2023-04-07T10:09:29;96648.97;;;20.90;51.99
10135;BME280;5107;48.850;8.924;2023-04-07T10:11:57;96653.28;;;20.91;52.11
10135;BME280;5107;48.850;8.924;2023-04-07T10:14:29;96657.31;;;20.93;52.01
10135;BME280;5107;48.850;8.924;2023-04-07T10:16:56;96649.88;;;20.95;51.86
10135;BME280;5107;48.850;8.924;2023-04-07T10:19:23;96658.72;;;20.96;51.95
10135;BME280;5107;48.850;8.924;2023-04-07T10:21:52;96653.38;;;20.96;51.90
10135;BME280;5107;48.850;8.924;2023-04-07T10:24:45;96653.16;;;20.97;51.88
10135;BME280;5107;48.850;8.924;2023-04-07T10:27:22;96650.47;;;20.97;52.02
10135;BME280;5107;48.850;8.924;2023-04-07T10:29:50;96656.63;;;20.98;51.88
10135;BME280;5107;48.850;8.924;2023-04-07T10:32:17;96644.88;;;20.99;51.75
10135;BME280;5107;48.850;8.924;2023-04-07T10:37:16;96654.53;;;21.00;52.10
10135;BME280;5107;48.850;8.924;2023-04-07T10:39:46;96656.34;;;21.96;49.80
10135;BME280;5107;48.850;8.924;2023-04-07T10:45:08;96654.97;;;21.48;49.48
10135;BME280;5107;48.850;8.924;2023-04-07T10:50:24;96647.59;;;21.55;50.27
10135;BME280;5107;48.850;8.924;2023-04-07T10:53:11;96662.13;;;21.59;50.48
10135;BME280;5107;48.850;8.924;2023-04-07T10:55:45;96645.00;;;21.61;49.66
10135;BME280;5107;48.850;8.924;2023-04-07T11:00:41;96646.72;;;21.50;49.55
10135;BME280;5107;48.850;8.924;2023-04-07T11:03:13;96642.59;;;21.59;49.73
10135;BME280;5107;48.850;8.924;2023-04-07T11:05:42;96653.78;;;21.56;49.25
10135;BME280;5107;48.850;8.924;2023-04-07T11:08:08;96652.56;;;21.64;49.46
10135;BME280;5107;48.850;8.924;2023-04-07T11:10:34;96652.53;;;21.75;49.09
10135;BME280;5107;48.850;8.924;2023-04-07T11:13:07;96649.56;;;21.77;49.38
10135;BME280;5107;48.850;8.924;2023-04-07T11:15:35;96654.47;;;21.80;49.39
10135;BME280;5107;48.850;8.924;2023-04-07T11:18:25;96652.25;;;21.77;49.34
10135;BME280;5107;48.850;8.924;2023-04-07T11:20:54;96648.75;;;21.76;49.41
10135;BME280;5107;48.850;8.924;2023-04-07T11:23:22;96652.84;;;21.79;50.15
10135;BME280;5107;48.850;8.924;2023-04-07T11:25:51;96657.38;;;21.95;49.25
10135;BME280;5107;48.850;8.924;2023-04-07T11:28:17;96653.66;;;21.79;49.72
10135;BME280;5107;48.850;8.924;2023-04-07T11:30:52;96653.81;;;21.73;50.15
10135;BME280;5107;48.850;8.924;2023-04-07T11:33:24;96660.69;;;21.69;50.08
10135;BME280;5107;48.850;8.924;2023-04-07T11:35:58;96669.00;;;21.67;50.04
10135;BME280;5107;48.850;8.924;2023-04-07T11:38:29;96666.53;;;21.66;50.11
10135;BME280;5107;48.850;8.924;2023-04-07T11:41:13;96669.22;;;21.66;49.94
10135;BME280;5107;48.850;8.924;2023-04-07T11:43:40;96668.19;;;21.67;50.10
10135;BME280;5107;48.850;8.924;2023-04-07T11:46:11;96674.59;;;21.66;49.85
10135;BME280;5107;48.850;8.924;2023-04-07T11:48:39;96664.69;;;21.66;49.87
10135;BME280;5107;48.850;8.924;2023-04-07T11:51:06;96672.72;;;21.66;50.05
10135;BME280;5107;48.850;8.924;2023-04-07T11:53:40;96671.91;;;21.66;49.88
10135;BME280;5107;48.850;8.924;2023-04-07T11:56:16;96675.63;;;21.65;49.99
10135;BME280;5107;48.850;8.924;2023-04-07T11:58:53;96682.03;;;21.64;50.07
10135;BME280;5107;48.850;8.924;2023-04-07T12:01:21;96681.22;;;21.63;49.98
10135;BME280;5107;48.850;8.924;2023-04-07T12:04:03;96676.09;;;21.62;50.03
10135;BME280;5107;48.850;8.924;2023-04-07T12:06:35;96680.63;;;21.61;50.20
10135;BME280;5107;48.850;8.924;2023-04-07T12:09:06;96683.09;;;21.63;49.95
10135;BME280;5107;48.850;8.924;2023-04-07T12:11:34;96678.78;;;21.62;50.11
10135;BME280;5107;48.850;8.924;2023-04-07T12:14:00;96682.03;;;21.64;50.07
10135;BME280;5107;48.850;8.924;2023-04-07T12:16:29;96687.97;;;21.66;50.04
10135;BME280;5107;48.850;8.924;2023-04-07T12:18:55;96676.44;;;21.65;50.15
10135;BME280;5107;48.850;8.924;2023-04-07T12:21:22;96684.25;;;21.67;49.79
10135;BME280;5107;48.850;8.924;2023-04-07T12:23:50;96680.16;;;21.64;49.84
10135;BME280;5107;48.850;8.924;2023-04-07T12:26:16;96688.53;;;21.68;49.93
10135;BME280;5107;48.850;8.924;2023-04-07T12:28:42;96693.88;;;21.68;49.80
10135;BME280;5107;48.850;8.924;2023-04-07T12:31:08;96694.38;;;21.65;49.91
10135;BME280;5107;48.850;8.924;2023-04-07T12:33:34;96705.09;;;21.65;50.09
10135;BME280;5107;48.850;8.924;2023-04-07T12:36:00;96698.09;;;21.64;49.99
10135;BME280;5107;48.850;8.924;2023-04-07T12:38:26;96704.59;;;21.68;50.06
10135;BME280;5107;48.850;8.924;2023-04-07T12:40:53;96699.75;;;21.65;50.06
10135;BME280;5107;48.850;8.924;2023-04-07T12:43:19;96702.41;;;21.65;49.91
10135;BME280;5107;48.850;8.924;2023-04-07T12:45:45;96706.91;;;21.76;49.81
10135;BME280;5107;48.850;8.924;2023-04-07T12:48:11;96712.94;;;21.83;49.57
10135;BME280;5107;48.850;8.924;2023-04-07T12:50:37;96714.66;;;21.89;49.72
10135;BME280;5107;48.850;8.924;2023-04-07T12:53:03;96708.53;;;22.05;50.41
10135;BME280;5107;48.850;8.924;2023-04-07T12:55:30;96713.31;;;22.03;49.29
10135;BME280;5107;48.850;8.924;2023-04-07T12:57:59;96711.69;;;22.02;49.28
10135;BME280;5107;48.850;8.924;2023-04-07T13:00:25;96712.84;;;22.06;49.28
10135;BME280;5107;48.850;8.924;2023-04-07T13:02:51;96706.19;;;22.09;49.35
10135;BME280;5107;48.850;8.924;2023-04-07T13:05:17;96709.59;;;22.04;49.63
10135;BME280;5107;48.850;8.924;2023-04-07T13:07:44;96713.06;;;22.05;49.61
10135;BME280;5107;48.850;8.924;2023-04-07T13:10:10;96709.00;;;22.02;49.77
10135;BME280;5107;48.850;8.924;2023-04-07T13:12:37;96713.44;;;21.96;49.90
10135;BME280;5107;48.850;8.924;2023-04-07T13:15:05;96710.75;;;21.96;49.92
10135;BME280;5107;48.850;8.924;2023-04-07T13:17:31;96714.72;;;21.94;49.96
10135;BME280;5107;48.850;8.924;2023-04-07T13:19:58;96705.63;;;21.95;50.07
10135;BME280;5107;48.850;8.924;2023-04-07T13:22:24;96716.34;;;21.95;49.94
10135;BME280;5107;48.850;8.924;2023-04-07T13:24:50;96707.75;;;21.93;50.03
10135;BME280;5107;48.850;8.924;2023-04-07T13:27:16;96708.81;;;21.92;50.01
10135;BME280;5107;48.850;8.924;2023-04-07T13:29:42;96703.47;;;21.92;50.20
10135;BME280;5107;48.850;8.924;2023-04-07T13:32:09;96708.81;;;21.92;50.09
10135;BME280;5107;48.850;8.924;2023-04-07T13:34:38;96706.59;;;21.89;50.27